sensor_id;sensor_type;location;lat;lon;timestamp;pressure;altitude;pressure_sealevel;temperature;humidity
2675;BME280;1347;42.122;24.746;2023-01-25T00:01:55;101033.22;;;2.10;100.00
2675;BME280;1347;42.122;24.746;2023-01-25T00:04:22;101035.38;;;2.13;100.00
2675;BME280;1347;42.122;24.746;2023-01-25T00:06:50;101041.31;;;2.10;100.00
2675;BME280;1347;42.122;24.746;2023-01-25T00:09:17;101045.72;;;1.91;100.00
2675;BME280;1347;42.122;24.746;2023-01-25T00:11:46;101031.63;;;1.84;100.00
2675;BME280;1347;42.122;24.746;2023-01-25T00:14:13;101038.66;;;1.85;100.00
2675;BME280;1347;42.122;24.746;2023-01-25T00:16:41;101037.88;;;1.79;100.00
2675;BME280;1347;42.122;24.746;2023-01-25T00:19:09;101033.56;;;1.73;100.00
2675;BME280;1347;42.122;24.746;2023-01-25T00:21:36;101034.38;;;1.74;100.00
2675;BME280;1347;42.122;24.746;2023-01-25T00:24:05;101035.75;;;1.71;100.00
2675;BME280;1347;42.122;24.746;2023-01-25T00:26:33;101033.06;;;1.61;100.00
2675;BME280;1347;42.122;24.746;2023-01-25T00:29:02;101039.53;;;1.65;100.00
2675;BME280;1347;42.122;24.746;2023-01-25T00:31:36;101040.34;;;1.61;100.00
2675;BME280;1347;42.122;24.746;2023-01-25T00:34:28;101035.47;;;1.73;100.00
2675;BME280;1347;42.122;24.746;2023-01-25T00:37:12;101040.06;;;1.72;100.00
2675;BME280;1347;42.122;24.746;2023-01-25T00:39:40;101038.44;;;1.66;100.00
2675;BME280;1347;42.122;24.746;2023-01-25T00:42:09;101038.44;;;1.66;100.00
2675;BME280;1347;42.122;24.746;2023-01-25T00:44:38;101043.03;;;1.66;100.00
2675;BME280;1347;42.122;24.746;2023-01-25T00:47:05;101043.84;;;1.66;100.00
2675;BME280;1347;42.122;24.746;2023-01-25T00:49:32;101027.63;;;1.66;100.00
2675;BME280;1347;42.122;24.746;2023-01-25T00:51:59;101039.78;;;1.74;100.00
2675;BME280;1347;42.122;24.746;2023-01-25T00:54:26;101044.41;;;1.68;100.00
2675;BME280;1347;42.122;24.746;2023-01-25T00:56:53;101038.72;;;1.65;100.00
2675;BME280;1347;42.122;24.746;2023-01-25T00:59:21;101040.63;;;1.69;100.00
2675;BME280;1347;42.122;24.746;2023-01-25T01:01:51;101037.88;;;1.79;100.00
2675;BME280;1347;42.122;24.746;2023-01-25T01:04:18;101042.22;;;1.80;100.00
2675;BME280;1347;42.122;24.746;2023-01-25T01:06:45;101043.00;;;1.86;100.00
2675;BME280;1347;42.122;24.746;2023-01-25T01:09:14;101038.94;;;1.89;100.00
2675;BME280;1347;42.122;24.746;2023-01-25T01:11:41;101045.44;;;1.93;100.00
2675;BME280;1347;42.122;24.746;2023-01-25T01:14:08;101037.06;;;1.79;100.00
2675;BME280;1347;42.122;24.746;2023-01-25T01:16:35;101032.44;;;1.84;100.00
2675;BME280;1347;42.122;24.746;2023-01-25T01:19:04;101036.53;;;1.82;100.00
2675;BME280;1347;42.122;24.746;2023-01-25T01:21:31;101031.41;;;1.75;100.00
2675;BME280;1347;42.122;24.746;2023-01-25T01:23:58;101028.44;;;1.72;100.00
2675;BME280;1347;42.122;24.746;2023-01-25T01:26:25;101016.25;;;1.74;100.00
2675;BME280;1347;42.122;24.746;2023-01-25T01:28:52;101016.84;;;1.61;100.00
2675;BME280;1347;42.122;24.746;2023-01-25T01:31:20;101014.94;;;1.67;100.00
2675;BME280;1347;42.122;24.746;2023-01-25T01:33:48;101017.91;;;1.70;100.00
2675;BME280;1347;42.122;24.746;2023-01-25T01:36:18;101018.19;;;1.69;100.00
2675;BME280;1347;42.122;24.746;2023-01-25T01:38:46;101026.84;;;1.61;100.00
2675;BME280;1347;42.122;24.746;2023-01-25T01:41:14;101020.88;;;1.54;100.00
2675;BME280;1347;42.122;24.746;2023-01-25T01:43:41;101017.38;;;1.53;100.00
2675;BME280;1347;42.122;24.746;2023-01-25T01:46:10;101017.09;;;1.55;100.00
2675;BME280;1347;42.122;24.746;2023-01-25T01:48:41;101010.38;;;1.52;100.00
2675;BME280;1347;42.122;24.746;2023-01-25T01:51:15;101015.22;;;1.55;100.00
2675;BME280;1347;42.122;24.746;2023-01-25T01:53:46;101012.78;;;1.54;100.00
2675;BME280;1347;42.122;24.746;2023-01-25T01:56:19;101009.56;;;1.52;100.00
2675;BME280;1347;42.122;24.746;2023-01-25T01:58:49;101006.84;;;1.57;100.00
2675;BME280;1347;42.122;24.746;2023-01-25T02:01:18;101014.13;;;1.56;100.00
2675;BME280;1347;42.122;24.746;2023-01-25T02:03:46;101013.06;;;1.62;100.00
2675;BME280;1347;42.122;24.746;2023-01-25T02:06:16;101016.59;;;1.53;100.00
2675;BME280;1347;42.122;24.746;2023-01-25T02:08:48;101014.38;;;1.65;100.00
2675;BME280;1347;42.122;24.746;2023-01-25T02:11:15;101017.13;;;1.60;100.00
2675;BME280;1347;42.122;24.746;2023-01-25T02:13:42;101014.41;;;1.55;100.00
2675;BME280;1347;42.122;24.746;2023-01-25T02:16:14;101009.28;;;1.53;100.00
2675;BME280;1347;42.122;24.746;2023-01-25T02:18:42;101003.06;;;1.58;100.00
2675;BME280;1347;42.122;24.746;2023-01-25T02:21:09;101006.84;;;1.62;100.00
2675;BME280;1347;42.122;24.746;2023-01-25T02:23:42;101009.28;;;1.58;100.00
2675;BME280;1347;42.122;24.746;2023-01-25T02:26:15;101007.13;;;1.60;100.00
2675;BME280;1347;42.122;24.746;2023-01-25T02:28:45;100998.16;;;1.65;100.00
2675;BME280;1347;42.122;24.746;2023-01-25T02:31:14;101000.91;;;1.60;100.00
2675;BME280;1347;42.122;24.746;2023-01-25T02:33:42;101008.19;;;1.59;100.00
2675;BME280;1347;42.122;24.746;2023-01-25T02:36:18;101007.94;;;1.61;100.00
2675;BME280;1347;42.122;24.746;2023-01-25T02:38:55;100998.44;;;1.63;100.00
2675;BME280;1347;42.122;24.746;2023-01-25T02:41:31;101002.78;;;1.64;100.00
2675;BME280;1347;42.122;24.746;2023-01-25T02:43:59;101005.47;;;1.69;100.00
2675;BME280;1347;42.122;24.746;2023-01-25T02:46:27;101012.50;;;1.65;100.00
2675;BME280;1347;42.122;24.746;2023-01-25T02:48:56;101007.06;;;1.75;100.00
2675;BME280;1347;42.122;24.746;2023-01-25T02:51:25;101008.16;;;1.74;100.00
2675;BME280;1347;42.122;24.746;2023-01-25T02:53:53;101002.22;;;1.67;100.00
2675;BME280;1347;42.122;24.746;2023-01-25T02:56:20;100992.22;;;1.68;100.00
2675;BME280;1347;42.122;24.746;2023-01-25T02:58:48;100994.16;;;1.62;100.00
2675;BME280;1347;42.122;24.746;2023-01-25T03:01:15;100997.91;;;1.71;100.00
2675;BME280;1347;42.122;24.746;2023-01-25T03:03:43;101004.13;;;1.72;100.00
2675;BME280;1347;42.122;24.746;2023-01-25T03:06:10;100997.38;;;1.69;100.00
2675;BME280;1347;42.122;24.746;2023-01-25T03:08:37;101006.25;;;1.75;100.00
2675;BME280;1347;42.122;24.746;2023-01-25T03:11:05;101014.13;;;1.71;99.74
2675;BME280;1347;42.122;24.746;2023-01-25T03:13:33;101017.88;;;1.80;99.04
2675;BME280;1347;42.122;24.746;2023-01-25T03:16:03;101004.63;;;1.74;98.66
2675;BME280;1347;42.122;24.746;2023-01-25T03:18:31;101015.19;;;1.80;98.40
2675;BME280;1347;42.122;24.746;2023-01-25T03:21:03;101014.09;;;1.81;98.04
2675;BME280;1347;42.122;24.746;2023-01-25T03:23:30;101001.94;;;1.79;97.46
2675;BME280;1347;42.122;24.746;2023-01-25T03:26:04;101003.00;;;1.83;98.02
2675;BME280;1347;42.122;24.746;2023-01-25T03:28:31;101004.38;;;1.75;97.49
2675;BME280;1347;42.122;24.746;2023-01-25T03:30:58;100996.28;;;1.70;97.57
2675;BME280;1347;42.122;24.746;2023-01-25T03:33:26;100995.72;;;1.73;97.72
2675;BME280;1347;42.122;24.746;2023-01-25T03:35:53;101001.94;;;1.74;97.42
2675;BME280;1347;42.122;24.746;2023-01-25T03:38:20;100993.56;;;1.65;97.60
2675;BME280;1347;42.122;24.746;2023-01-25T03:40:47;101002.50;;;1.71;97.09
2675;BME280;1347;42.122;24.746;2023-01-25T03:43:15;101001.13;;;1.73;96.68
2675;BME280;1347;42.122;24.746;2023-01-25T03:45:42;101002.78;;;1.64;96.21
2675;BME280;1347;42.122;24.746;2023-01-25T03:48:09;101008.44;;;1.73;95.95
2675;BME280;1347;42.122;24.746;2023-01-25T03:50:37;101004.13;;;1.67;95.51
2675;BME280;1347;42.122;24.746;2023-01-25T03:53:08;101002.78;;;1.69;95.11
2675;BME280;1347;42.122;24.746;2023-01-25T03:55:52;101005.47;;;1.64;95.61
2675;BME280;1347;42.122;24.746;2023-01-25T03:58:19;101009.25;;;1.63;95.38
2675;BME280;1347;42.122;24.746;2023-01-25T04:00:46;101006.84;;;1.57;95.19
2675;BME280;1347;42.122;24.746;2023-01-25T04:03:13;101004.13;;;1.57;94.98
2675;BME280;1347;42.122;24.746;2023-01-25T04:05:42;101010.59;;;1.66;95.14
2675;BME280;1347;42.122;24.746;2023-01-25T04:08:09;101008.19;;;1.59;95.12
2675;BME280;1347;42.122;24.746;2023-01-25T04:10:35;101017.91;;;1.55;95.46
2675;BME280;1347;42.122;24.746;2023-01-25T04:13:02;101012.53;;;1.60;95.12
2675;BME280;1347;42.122;24.746;2023-01-25T04:15:29;101011.97;;;1.53;95.45
2675;BME280;1347;42.122;24.746;2023-01-25T04:17:56;101013.88;;;1.58;95.45
2675;BME280;1347;42.122;24.746;2023-01-25T04:20:23;101013.59;;;1.54;95.83
2675;BME280;1347;42.122;24.746;2023-01-25T04:22:51;101015.50;;;1.54;95.90
2675;BME280;1347;42.122;24.746;2023-01-25T04:25:18;101016.03;;;1.61;95.36
2675;BME280;1347;42.122;24.746;2023-01-25T04:27:45;101016.03;;;1.45;96.00
2675;BME280;1347;42.122;24.746;2023-01-25T04:30:12;101016.31;;;1.49;96.43
2675;BME280;1347;42.122;24.746;2023-01-25T04:32:39;101010.09;;;1.48;96.16
2675;BME280;1347;42.122;24.746;2023-01-25T04:35:07;101011.72;;;1.50;96.53
2675;BME280;1347;42.122;24.746;2023-01-25T04:37:34;101019.56;;;1.51;96.91
2675;BME280;1347;42.122;24.746;2023-01-25T04:40:04;101025.25;;;1.50;97.20
2675;BME280;1347;42.122;24.746;2023-01-25T04:42:31;101023.59;;;1.59;97.51
2675;BME280;1347;42.122;24.746;2023-01-25T04:44:58;101025.78;;;1.52;97.93
2675;BME280;1347;42.122;24.746;2023-01-25T04:47:25;101023.59;;;1.54;98.13
2675;BME280;1347;42.122;24.746;2023-01-25T04:49:51;101017.69;;;1.52;98.49
2675;BME280;1347;42.122;24.746;2023-01-25T04:52:18;101022.53;;;1.44;99.05
2675;BME280;1347;42.122;24.746;2023-01-25T04:54:45;101023.06;;;1.52;99.35
2675;BME280;1347;42.122;24.746;2023-01-25T04:57:13;101024.97;;;1.51;99.25
2675;BME280;1347;42.122;24.746;2023-01-25T04:59:40;101020.66;;;1.50;99.77
2675;BME280;1347;42.122;24.746;2023-01-25T05:02:07;101018.50;;;1.52;99.58
2675;BME280;1347;42.122;24.746;2023-01-25T05:04:34;101021.44;;;1.56;99.01
2675;BME280;1347;42.122;24.746;2023-01-25T05:07:01;101025.25;;;1.50;98.91
2675;BME280;1347;42.122;24.746;2023-01-25T05:09:28;101020.06;;;1.53;98.80
2675;BME280;1347;42.122;24.746;2023-01-25T05:11:55;101019.31;;;1.42;98.86
2675;BME280;1347;42.122;24.746;2023-01-25T05:14:23;101028.47;;;1.46;98.58
2675;BME280;1347;42.122;24.746;2023-01-25T05:16:50;101027.94;;;1.50;98.46
2675;BME280;1347;42.122;24.746;2023-01-25T05:19:17;101035.53;;;1.42;97.95
2675;BME280;1347;42.122;24.746;2023-01-25T05:21:44;101032.81;;;1.37;98.39
2675;BME280;1347;42.122;24.746;2023-01-25T05:24:27;101036.31;;;1.38;99.29
2675;BME280;1347;42.122;24.746;2023-01-25T05:26:55;101032.53;;;1.39;98.52
2675;BME280;1347;42.122;24.746;2023-01-25T05:29:41;101031.72;;;1.38;97.78
2675;BME280;1347;42.122;24.746;2023-01-25T05:32:10;101034.44;;;1.38;97.48
2675;BME280;1347;42.122;24.746;2023-01-25T05:34:38;101037.69;;;1.40;97.14
2675;BME280;1347;42.122;24.746;2023-01-25T05:37:07;101041.19;;;1.36;96.48
2675;BME280;1347;42.122;24.746;2023-01-25T05:39:34;101036.31;;;1.38;96.16
2675;BME280;1347;42.122;24.746;2023-01-25T05:42:01;101033.06;;;1.36;95.83
2675;BME280;1347;42.122;24.746;2023-01-25T05:44:28;101037.94;;;1.34;95.59
2675;BME280;1347;42.122;24.746;2023-01-25T05:46:57;101055.22;;;1.28;95.59
2675;BME280;1347;42.122;24.746;2023-01-25T05:49:24;101048.47;;;1.25;95.73
2675;BME280;1347;42.122;24.746;2023-01-25T05:51:50;101049.00;;;1.22;95.24
2675;BME280;1347;42.122;24.746;2023-01-25T05:54:17;101052.50;;;1.23;95.37
2675;BME280;1347;42.122;24.746;2023-01-25T05:56:47;101058.72;;;1.23;95.21
2675;BME280;1347;42.122;24.746;2023-01-25T05:59:14;101061.44;;;1.28;95.60
2675;BME280;1347;42.122;24.746;2023-01-25T06:01:41;101059.03;;;1.32;95.16
2675;BME280;1347;42.122;24.746;2023-01-25T06:04:12;101059.81;;;1.37;94.62
2675;BME280;1347;42.122;24.746;2023-01-25T06:06:39;101046.59;;;1.36;94.66
2675;BME280;1347;42.122;24.746;2023-01-25T06:09:06;101059.81;;;1.37;94.70
2675;BME280;1347;42.122;24.746;2023-01-25T06:11:33;101044.41;;;1.43;94.95
2675;BME280;1347;42.122;24.746;2023-01-25T06:14:00;101053.88;;;1.35;94.43
2675;BME280;1347;42.122;24.746;2023-01-25T06:16:27;101044.97;;;1.30;94.03
2675;BME280;1347;42.122;24.746;2023-01-25T06:18:54;101053.59;;;1.37;93.93
2675;BME280;1347;42.122;24.746;2023-01-25T06:21:22;101050.91;;;1.37;93.99
2675;BME280;1347;42.122;24.746;2023-01-25T06:23:49;101047.66;;;1.35;93.70
2675;BME280;1347;42.122;24.746;2023-01-25T06:26:16;101051.19;;;1.35;94.04
2675;BME280;1347;42.122;24.746;2023-01-25T06:28:43;101046.59;;;1.36;93.78
2675;BME280;1347;42.122;24.746;2023-01-25T06:31:11;101046.03;;;1.34;93.46
2675;BME280;1347;42.122;24.746;2023-01-25T06:33:39;101045.78;;;1.40;93.27
2675;BME280;1347;42.122;24.746;2023-01-25T06:36:09;101047.41;;;1.41;92.77
2675;BME280;1347;42.122;24.746;2023-01-25T06:38:38;101051.19;;;1.35;92.73
2675;BME280;1347;42.122;24.746;2023-01-25T06:41:08;101060.09;;;1.36;93.35
2675;BME280;1347;42.122;24.746;2023-01-25T06:43:36;101051.72;;;1.37;93.19
2675;BME280;1347;42.122;24.746;2023-01-25T06:46:04;101046.03;;;1.49;92.80
2675;BME280;1347;42.122;24.746;2023-01-25T06:48:32;101052.25;;;1.50;92.49
2675;BME280;1347;42.122;24.746;2023-01-25T06:51:02;101043.06;;;1.45;92.87
2675;BME280;1347;42.122;24.746;2023-01-25T06:53:31;101049.28;;;1.41;93.21
2675;BME280;1347;42.122;24.746;2023-01-25T06:56:01;101054.44;;;1.42;92.55
2675;BME280;1347;42.122;24.746;2023-01-25T06:58:29;101049.81;;;1.53;93.27
2675;BME280;1347;42.122;24.746;2023-01-25T07:00:59;101053.59;;;1.67;92.29
2675;BME280;1347;42.122;24.746;2023-01-25T07:03:27;101050.31;;;1.75;92.04
2675;BME280;1347;42.122;24.746;2023-01-25T07:05:58;101054.09;;;1.79;91.72
2675;BME280;1347;42.122;24.746;2023-01-25T07:08:25;101047.63;;;1.70;91.29
2675;BME280;1347;42.122;24.746;2023-01-25T07:10:53;101050.59;;;1.69;91.51
2675;BME280;1347;42.122;24.746;2023-01-25T07:13:22;101052.47;;;1.73;91.73
2675;BME280;1347;42.122;24.746;2023-01-25T07:15:53;101058.16;;;1.77;91.95
2675;BME280;1347;42.122;24.746;2023-01-25T07:18:21;101062.50;;;1.73;91.95
2675;BME280;1347;42.122;24.746;2023-01-25T07:20:48;101065.75;;;1.70;91.26
2675;BME280;1347;42.122;24.746;2023-01-25T07:23:14;101052.78;;;1.67;90.70
2675;BME280;1347;42.122;24.746;2023-01-25T07:25:45;101064.41;;;1.67;90.70
2675;BME280;1347;42.122;24.746;2023-01-25T07:28:13;101059.81;;;1.63;90.84
2675;BME280;1347;42.122;24.746;2023-01-25T07:30:42;101066.56;;;1.65;91.04
2675;BME280;1347;42.122;24.746;2023-01-25T07:33:09;101060.34;;;1.65;90.94
2675;BME280;1347;42.122;24.746;2023-01-25T07:35:37;101071.69;;;1.72;91.27
2675;BME280;1347;42.122;24.746;2023-01-25T07:38:03;101070.59;;;1.78;90.91
2675;BME280;1347;42.122;24.746;2023-01-25T07:40:30;101071.94;;;1.80;90.94
2675;BME280;1347;42.122;24.746;2023-01-25T07:42:58;101066.81;;;1.74;91.34
2675;BME280;1347;42.122;24.746;2023-01-25T07:45:25;101068.69;;;1.78;91.02
2675;BME280;1347;42.122;24.746;2023-01-25T07:47:56;101073.31;;;1.83;90.34
2675;BME280;1347;42.122;24.746;2023-01-25T07:50:24;101078.16;;;1.81;89.52
2675;BME280;1347;42.122;24.746;2023-01-25T07:52:52;101073.31;;;1.78;89.08
2675;BME280;1347;42.122;24.746;2023-01-25T07:55:19;101081.13;;;1.79;88.94
2675;BME280;1347;42.122;24.746;2023-01-25T07:57:46;101077.91;;;1.82;88.86
2675;BME280;1347;42.122;24.746;2023-01-25T08:00:13;101075.19;;;1.82;88.71
2675;BME280;1347;42.122;24.746;2023-01-25T08:02:40;101080.59;;;1.82;87.84
2675;BME280;1347;42.122;24.746;2023-01-25T08:05:09;101082.22;;;1.78;87.45
2675;BME280;1347;42.122;24.746;2023-01-25T08:07:36;101083.31;;;1.77;87.76
2675;BME280;1347;42.122;24.746;2023-01-25T08:10:04;101082.75;;;1.80;87.42
2675;BME280;1347;42.122;24.746;2023-01-25T08:12:32;101080.06;;;1.80;87.50
2675;BME280;1347;42.122;24.746;2023-01-25T08:14:59;101081.69;;;1.81;86.82
2675;BME280;1347;42.122;24.746;2023-01-25T08:17:26;101080.59;;;1.82;86.89
2675;BME280;1347;42.122;24.746;2023-01-25T08:19:57;101088.16;;;1.85;87.50
2675;BME280;1347;42.122;24.746;2023-01-25T08:22:25;101077.34;;;1.85;87.55
2675;BME280;1347;42.122;24.746;2023-01-25T08:24:52;101080.59;;;1.88;87.39
2675;BME280;1347;42.122;24.746;2023-01-25T08:27:19;101086.00;;;1.88;86.83
2675;BME280;1347;42.122;24.746;2023-01-25T08:29:46;101087.91;;;1.82;86.85
2675;BME280;1347;42.122;24.746;2023-01-25T08:32:14;101090.59;;;1.87;87.20
2675;BME280;1347;42.122;24.746;2023-01-25T08:34:41;101077.88;;;1.88;87.36
2675;BME280;1347;42.122;24.746;2023-01-25T08:37:08;101084.66;;;1.80;87.64
2675;BME280;1347;42.122;24.746;2023-01-25T08:39:36;101075.72;;;1.90;87.42
2675;BME280;1347;42.122;24.746;2023-01-25T08:42:04;101081.09;;;1.95;87.81
2675;BME280;1347;42.122;24.746;2023-01-25T08:44:31;101084.06;;;1.98;88.15
2675;BME280;1347;42.122;24.746;2023-01-25T08:46:58;101089.19;;;2.10;87.56
2675;BME280;1347;42.122;24.746;2023-01-25T08:49:25;101082.16;;;2.09;87.47
2675;BME280;1347;42.122;24.746;2023-01-25T08:51:52;101080.25;;;2.04;87.20
2675;BME280;1347;42.122;24.746;2023-01-25T08:54:19;101085.13;;;2.07;87.70
2675;BME280;1347;42.122;24.746;2023-01-25T08:56:47;101076.72;;;2.14;87.54
2675;BME280;1347;42.122;24.746;2023-01-25T08:59:14;101088.34;;;2.14;87.22
2675;BME280;1347;42.122;24.746;2023-01-25T09:01:41;101090.00;;;2.10;86.60
2675;BME280;1347;42.122;24.746;2023-01-25T09:04:08;101077.53;;;2.14;86.67
2675;BME280;1347;42.122;24.746;2023-01-25T09:06:35;101073.75;;;2.15;87.30
2675;BME280;1347;42.122;24.746;2023-01-25T09:09:02;101070.75;;;2.17;87.64
2675;BME280;1347;42.122;24.746;2023-01-25T09:11:30;101059.94;;;2.17;87.80
2675;BME280;1347;42.122;24.746;2023-01-25T09:14:00;101054.25;;;2.18;87.72
2675;BME280;1347;42.122;24.746;2023-01-25T09:16:27;101051.84;;;2.22;87.81
2675;BME280;1347;42.122;24.746;2023-01-25T09:18:55;101055.59;;;2.31;87.61
2675;BME280;1347;42.122;24.746;2023-01-25T09:21:23;101047.97;;;2.43;87.48
2675;BME280;1347;42.122;24.746;2023-01-25T09:23:52;101051.38;;;2.59;86.94
2675;BME280;1347;42.122;24.746;2023-01-25T09:26:19;101054.63;;;2.61;86.74
2675;BME280;1347;42.122;24.746;2023-01-25T09:28:47;101054.69;;;2.51;86.29
2675;BME280;1347;42.122;24.746;2023-01-25T09:31:16;101047.28;;;2.67;87.04
2675;BME280;1347;42.122;24.746;2023-01-25T09:33:44;101046.22;;;2.63;86.39
2675;BME280;1347;42.122;24.746;2023-01-25T09:36:12;101039.53;;;2.45;86.05
2675;BME280;1347;42.122;24.746;2023-01-25T09:38:39;101038.22;;;2.42;86.33
2675;BME280;1347;42.122;24.746;2023-01-25T09:41:17;101024.97;;;2.41;86.19
2675;BME280;1347;42.122;24.746;2023-01-25T09:44:03;101024.41;;;2.39;86.54
2675;BME280;1347;42.122;24.746;2023-01-25T09:46:40;101015.22;;;2.40;86.64
2675;BME280;1347;42.122;24.746;2023-01-25T09:49:20;101015.16;;;2.50;87.20
2675;BME280;1347;42.122;24.746;2023-01-25T09:52:02;101010.84;;;2.49;86.77
2675;BME280;1347;42.122;24.746;2023-01-25T09:54:36;101021.38;;;2.50;86.81
2675;BME280;1347;42.122;24.746;2023-01-25T09:57:09;101010.00;;;2.53;86.99
2675;BME280;1347;42.122;24.746;2023-01-25T09:59:40;101007.31;;;2.53;87.04
2675;BME280;1347;42.122;24.746;2023-01-25T10:02:19;101007.81;;;2.61;87.18
2675;BME280;1347;42.122;24.746;2023-01-25T10:04:55;101000.22;;;2.57;87.04
2675;BME280;1347;42.122;24.746;2023-01-25T10:07:26;100994.25;;;2.61;87.07
2675;BME280;1347;42.122;24.746;2023-01-25T10:10:00;100990.47;;;2.62;86.40
2675;BME280;1347;42.122;24.746;2023-01-25T10:12:33;100993.72;;;2.58;86.80
2675;BME280;1347;42.122;24.746;2023-01-25T10:15:11;100992.84;;;2.73;87.09
2675;BME280;1347;42.122;24.746;2023-01-25T10:17:45;100981.97;;;2.78;86.52
2675;BME280;1347;42.122;24.746;2023-01-25T10:20:21;100980.41;;;2.67;85.70
2675;BME280;1347;42.122;24.746;2023-01-25T10:23:00;100967.31;;;2.84;86.30
2675;BME280;1347;42.122;24.746;2023-01-25T10:25:35;100973.47;;;2.95;85.66
2675;BME280;1347;42.122;24.746;2023-01-25T10:28:17;100967.50;;;2.93;84.97
2675;BME280;1347;42.122;24.746;2023-01-25T10:30:54;100965.63;;;2.88;85.17
2675;BME280;1347;42.122;24.746;2023-01-25T10:33:25;100949.91;;;2.90;85.44
2675;BME280;1347;42.122;24.746;2023-01-25T10:35:54;100952.06;;;2.93;84.91
2675;BME280;1347;42.122;24.746;2023-01-25T10:38:25;100945.66;;;2.79;85.26
2675;BME280;1347;42.122;24.746;2023-01-25T10:40:57;100942.78;;;2.66;86.07
2675;BME280;1347;42.122;24.746;2023-01-25T10:43:26;100930.84;;;2.72;86.20
2675;BME280;1347;42.122;24.746;2023-01-25T10:45:53;100937.75;;;2.88;85.50
2675;BME280;1347;42.122;24.746;2023-01-25T10:48:23;100939.09;;;2.90;85.37
2675;BME280;1347;42.122;24.746;2023-01-25T10:50:52;100932.09;;;2.84;85.08
2675;BME280;1347;42.122;24.746;2023-01-25T10:53:25;100929.16;;;2.81;85.36
2675;BME280;1347;42.122;24.746;2023-01-25T10:56:02;100934.59;;;2.76;84.77
2675;BME280;1347;42.122;24.746;2023-01-25T10:58:33;100932.19;;;2.74;84.83
2675;BME280;1347;42.122;24.746;2023-01-25T11:01:01;100927.00;;;2.78;85.41
2675;BME280;1347;42.122;24.746;2023-01-25T11:03:37;100919.50;;;2.99;85.18
2675;BME280;1347;42.122;24.746;2023-01-25T11:06:07;100924.13;;;2.98;84.66
2675;BME280;1347;42.122;24.746;2023-01-25T11:08:36;100918.50;;;2.89;85.45
2675;BME280;1347;42.122;24.746;2023-01-25T11:11:25;100910.09;;;2.91;85.61
2675;BME280;1347;42.122;24.746;2023-01-25T11:13:55;100902.50;;;2.93;85.31
2675;BME280;1347;42.122;24.746;2023-01-25T11:16:29;100905.03;;;2.84;85.60
2675;BME280;1347;42.122;24.746;2023-01-25T11:18:59;100899.63;;;2.84;85.82
2675;BME280;1347;42.122;24.746;2023-01-25T11:21:28;100888.72;;;2.89;85.82
2675;BME280;1347;42.122;24.746;2023-01-25T11:24:01;100883.56;;;2.93;86.00
2675;BME280;1347;42.122;24.746;2023-01-25T11:26:30;100885.06;;;3.04;86.18
2675;BME280;1347;42.122;24.746;2023-01-25T11:29:11;100875.84;;;3.05;85.83
2675;BME280;1347;42.122;24.746;2023-01-25T11:31:38;100883.56;;;3.17;84.76
2675;BME280;1347;42.122;24.746;2023-01-25T11:34:09;100875.78;;;3.10;84.87
2675;BME280;1347;42.122;24.746;2023-01-25T11:36:46;100875.78;;;3.10;85.61
2675;BME280;1347;42.122;24.746;2023-01-25T11:39:41;100878.25;;;3.07;84.13
2675;BME280;1347;42.122;24.746;2023-01-25T11:42:22;100878.78;;;3.09;84.22
2675;BME280;1347;42.122;24.746;2023-01-25T11:45:15;100870.47;;;3.00;84.31
2675;BME280;1347;42.122;24.746;2023-01-25T11:47:58;100863.19;;;2.95;83.76
2675;BME280;1347;42.122;24.746;2023-01-25T11:50:33;100864.81;;;2.96;83.35
2675;BME280;1347;42.122;24.746;2023-01-25T11:53:19;100865.63;;;2.97;83.64
2675;BME280;1347;42.122;24.746;2023-01-25T11:55:55;100860.72;;;2.99;83.61
2675;BME280;1347;42.122;24.746;2023-01-25T11:58:46;100852.03;;;3.02;83.22
2675;BME280;1347;42.122;24.746;2023-01-25T12:01:25;100859.91;;;2.99;83.60
2675;BME280;1347;42.122;24.746;2023-01-25T12:07:01;100843.91;;;3.02;84.51
2675;BME280;1347;42.122;24.746;2023-01-25T12:09:45;100836.78;;;3.11;84.66
2675;BME280;1347;42.122;24.746;2023-01-25T12:12:24;100827.97;;;3.24;83.98
2675;BME280;1347;42.122;24.746;2023-01-25T12:15:11;100825.31;;;3.43;83.87
2675;BME280;1347;42.122;24.746;2023-01-25T12:17:54;100834.16;;;3.49;83.27
2675;BME280;1347;42.122;24.746;2023-01-25T12:20:38;100830.44;;;3.45;82.95
2675;BME280;1347;42.122;24.746;2023-01-25T12:23:23;100823.41;;;3.20;82.76
2675;BME280;1347;42.122;24.746;2023-01-25T12:26:04;100819.25;;;3.27;82.77
2675;BME280;1347;42.122;24.746;2023-01-25T12:28:38;100809.31;;;3.18;82.95
2675;BME280;1347;42.122;24.746;2023-01-25T12:31:12;100810.53;;;3.30;83.46
2675;BME280;1347;42.122;24.746;2023-01-25T12:33:45;100819.00;;;3.00;82.60
2675;BME280;1347;42.122;24.746;2023-01-25T12:36:16;100813.34;;;2.96;82.58
2675;BME280;1347;42.122;24.746;2023-01-25T12:38:52;100814.97;;;2.97;82.76
2675;BME280;1347;42.122;24.746;2023-01-25T12:41:32;100815.34;;;3.15;82.87
2675;BME280;1347;42.122;24.746;2023-01-25T12:44:08;100813.31;;;3.02;82.80
2675;BME280;1347;42.122;24.746;2023-01-25T12:46:42;100808.06;;;3.10;83.42
2675;BME280;1347;42.122;24.746;2023-01-25T12:49:17;100808.22;;;3.19;83.24
2675;BME280;1347;42.122;24.746;2023-01-25T12:51:47;100813.50;;;3.10;83.32
2675;BME280;1347;42.122;24.746;2023-01-25T12:54:21;100807.81;;;3.07;83.49
2675;BME280;1347;42.122;24.746;2023-01-25T12:57:02;100807.25;;;3.10;84.36
2675;BME280;1347;42.122;24.746;2023-01-25T12:59:38;100810.31;;;3.03;83.59
2675;BME280;1347;42.122;24.746;2023-01-25T13:02:20;100806.00;;;3.02;83.52
2675;BME280;1347;42.122;24.746;2023-01-25T13:04:57;100802.53;;;2.96;83.41
2675;BME280;1347;42.122;24.746;2023-01-25T13:07:32;100796.13;;;3.11;83.55
2675;BME280;1347;42.122;24.746;2023-01-25T13:10:12;100792.56;;;2.92;84.12
2675;BME280;1347;42.122;24.746;2023-01-25T13:12:51;100786.22;;;3.02;84.78
2675;BME280;1347;42.122;24.746;2023-01-25T13:15:35;100797.59;;;3.04;84.40
2675;BME280;1347;42.122;24.746;2023-01-25T13:18:36;100790.66;;;3.16;84.56
2675;BME280;1347;42.122;24.746;2023-01-25T13:21:09;100784.31;;;3.02;84.43
2675;BME280;1347;42.122;24.746;2023-01-25T13:23:38;100789.34;;;2.90;83.91
2675;BME280;1347;42.122;24.746;2023-01-25T13:26:45;100793.38;;;2.92;83.90
2675;BME280;1347;42.122;24.746;2023-01-25T13:35:28;100785.13;;;3.03;83.24